Time;durP1;ratioP1;P1;durP2;ratioP2;P2;SDS_P1;SDS_P2;PMS_P1;PMS_P2;Temp;Humidity;BMP_temperature;BMP_pressure;BME280_temperature;BME280_humidity;BME280_pressure;Samples;Min_cycle;Max_cycle;Signal;HPM_P1;HPM_P2
2023/05/04 00:00:04;;;;;;;12.77;7.78;;;;;;;;;;6185144;23;20001;-77
2023/05/04 00:02:30;;;;;;;10.40;7.85;;;;;;;;;;6185573;23;20009;-77
2023/05/04 00:04:55;;;;;;;9.98;6.95;;;;;;;;;;6184309;23;20375;-76
2023/05/04 00:07:21;;;;;;;11.27;7.28;;;;;;;;;;6183321;23;20092;-76
2023/05/04 00:09:46;;;;;;;12.13;8.23;;;;;;;;;;6184859;23;20380;-76
2023/05/04 00:12:12;;;;;;;11.45;7.55;;;;;;;;;;6183528;23;20013;-76
2023/05/04 00:14:37;;;;;;;12.20;7.47;;;;;;;;;;6207541;23;20061;-76
2023/05/04 00:17:05;;;;;;;11.60;7.43;;;;;;;;;;6183066;23;20012;-76
2023/05/04 00:19:32;;;;;;;10.00;7.05;;;;;;;;;;6184602;23;20024;-76
2023/05/04 00:21:57;;;;;;;10.05;7.55;;;;;;;;;;6184579;23;20468;-77
2023/05/04 00:24:22;;;;;;;11.65;7.60;;;;;;;;;;6179729;23;20028;-76
2023/05/04 00:26:48;;;;;;;10.15;7.30;;;;;;;;;;6185325;23;20001;-76
2023/05/04 00:29:13;;;;;;;11.15;7.57;;;;;;;;;;6182190;23;20001;-76
2023/05/04 00:31:38;;;;;;;11.20;7.75;;;;;;;;;;6184625;23;20005;-76
2023/05/04 00:34:04;;;;;;;9.77;6.93;;;;;;;;;;6184560;23;20428;-76
2023/05/04 00:36:29;;;;;;;9.55;7.03;;;;;;;;;;6184267;23;20008;-76
2023/05/04 00:38:54;;;;;;;10.57;7.43;;;;;;;;;;6184006;23;20009;-76
2023/05/04 00:41:21;;;;;;;12.85;8.15;;;;;;;;;;6184746;23;20008;-76
2023/05/04 00:43:47;;;;;;;11.40;7.55;;;;;;;;;;6182868;23;20004;-76
2023/05/04 00:46:13;;;;;;;10.93;6.85;;;;;;;;;;6183705;23;20039;-77
2023/05/04 00:48:39;;;;;;;10.48;7.60;;;;;;;;;;6183380;23;20001;-76
2023/05/04 00:51:06;;;;;;;12.07;8.02;;;;;;;;;;6183424;23;20435;-76
2023/05/04 00:53:31;;;;;;;11.27;7.10;;;;;;;;;;6185055;23;20001;-76
2023/05/04 00:55:57;;;;;;;11.35;7.60;;;;;;;;;;6184218;23;20442;-76
2023/05/04 00:58:23;;;;;;;10.85;7.35;;;;;;;;;;6182800;23;20007;-76
2023/05/04 01:00:48;;;;;;;11.00;7.60;;;;;;;;;;6184163;23;20058;-76
2023/05/04 01:03:14;;;;;;;11.55;7.15;;;;;;;;;;6184428;23;20012;-77
2023/05/04 01:05:46;;;;;;;12.30;8.00;;;;;;;;;;6183954;23;20001;-78
2023/05/04 01:08:20;;;;;;;11.13;7.35;;;;;;;;;;6182225;23;20001;-76
2023/05/04 01:11:14;;;;;;;10.30;7.40;;;;;;;;;;6185401;23;20009;-76
2023/05/04 01:13:41;;;;;;;11.32;7.00;;;;;;;;;;6185284;23;20480;-76
2023/05/04 01:16:07;;;;;;;9.63;6.82;;;;;;;;;;6182282;23;20009;-77
2023/05/04 01:18:32;;;;;;;9.93;6.70;;;;;;;;;;6184777;23;20339;-76
2023/05/04 01:20:57;;;;;;;8.75;6.80;;;;;;;;;;6184978;23;20008;-78
2023/05/04 01:23:23;;;;;;;10.77;7.47;;;;;;;;;;6184718;23;20008;-76
2023/05/04 01:26:01;;;;;;;10.05;7.20;;;;;;;;;;6184655;23;20068;-76
2023/05/04 01:28:35;;;;;;;9.85;6.68;;;;;;;;;;6183903;23;20461;-76
2023/05/04 01:31:02;;;;;;;10.07;7.05;;;;;;;;;;6181166;23;20092;-77
2023/05/04 01:33:28;;;;;;;9.95;7.07;;;;;;;;;;6185174;23;20142;-76
2023/05/04 01:35:53;;;;;;;9.50;6.57;;;;;;;;;;6183857;23;20009;-75
2023/05/04 01:38:19;;;;;;;11.38;6.82;;;;;;;;;;6184579;23;20012;-76
2023/05/04 01:40:44;;;;;;;9.63;6.70;;;;;;;;;;6183303;23;20011;-76
2023/05/04 01:43:09;;;;;;;9.45;6.80;;;;;;;;;;6184564;23;20029;-76
2023/05/04 01:45:35;;;;;;;12.30;7.60;;;;;;;;;;6182680;23;20008;-77
2023/05/04 01:48:00;;;;;;;10.27;7.05;;;;;;;;;;6180823;23;20088;-76
2023/05/04 01:50:26;;;;;;;10.07;6.70;;;;;;;;;;6180382;23;20030;-76
2023/05/04 01:52:51;;;;;;;11.77;7.10;;;;;;;;;;6184970;23;20005;-76
2023/05/04 01:55:16;;;;;;;11.35;6.90;;;;;;;;;;6181923;23;20323;-76
2023/05/04 01:57:42;;;;;;;9.90;6.38;;;;;;;;;;6183481;23;20013;-76
2023/05/04 02:00:08;;;;;;;10.50;6.18;;;;;;;;;;6184614;23;20015;-76
2023/05/04 02:02:33;;;;;;;10.25;6.63;;;;;;;;;;6184953;23;20016;-76
2023/05/04 02:04:58;;;;;;;9.85;6.55;;;;;;;;;;6184244;23;20005;-76
2023/05/04 02:07:24;;;;;;;9.13;6.93;;;;;;;;;;6182863;23;20009;-76
2023/05/04 02:09:49;;;;;;;11.90;6.88;;;;;;;;;;6184404;23;20017;-77
2023/05/04 02:12:14;;;;;;;10.02;6.95;;;;;;;;;;6183458;23;20447;-76
2023/05/04 02:14:40;;;;;;;10.20;6.68;;;;;;;;;;6184142;23;20331;-76
2023/05/04 02:17:05;;;;;;;11.88;6.68;;;;;;;;;;6182555;23;20098;-76
2023/05/04 02:19:31;;;;;;;8.43;6.15;;;;;;;;;;6184285;23;20079;-76
2023/05/04 02:21:56;;;;;;;10.25;6.80;;;;;;;;;;6184610;23;20005;-76
2023/05/04 02:24:21;;;;;;;9.38;6.45;;;;;;;;;;6183891;23;20059;-76
2023/05/04 02:26:47;;;;;;;13.45;6.45;;;;;;;;;;6182968;23;20524;-76
2023/05/04 02:29:12;;;;;;;9.80;6.68;;;;;;;;;;6183877;23;20001;-76
2023/05/04 02:31:37;;;;;;;8.27;6.20;;;;;;;;;;6183219;23;20008;-76
2023/05/04 02:34:03;;;;;;;10.10;6.70;;;;;;;;;;6184904;23;20305;-76
2023/05/04 02:36:28;;;;;;;10.95;6.35;;;;;;;;;;6183417;23;20432;-78
2023/05/04 02:38:59;;;;;;;9.27;6.47;;;;;;;;;;6182232;23;20055;-76
2023/05/04 02:41:25;;;;;;;8.45;5.82;;;;;;;;;;6182475;23;20080;-77
2023/05/04 02:43:50;;;;;;;9.02;6.35;;;;;;;;;;6184176;23;20005;-76
2023/05/04 02:46:15;;;;;;;9.77;6.22;;;;;;;;;;6184636;23;20055;-76
2023/05/04 02:48:41;;;;;;;9.23;6.43;;;;;;;;;;6181848;23;20044;-76
2023/05/04 02:51:06;;;;;;;10.45;6.32;;;;;;;;;;6182979;23;20325;-76
2023/05/04 02:53:31;;;;;;;8.43;5.93;;;;;;;;;;6207231;23;20001;-76
2023/05/04 02:55:57;;;;;;;9.27;6.88;;;;;;;;;;6182358;23;20015;-76
2023/05/04 02:58:22;;;;;;;9.45;6.20;;;;;;;;;;6183852;23;20012;-77
2023/05/04 03:00:52;;;;;;;9.43;6.35;;;;;;;;;;6183436;23;20005;-76
2023/05/04 03:03:17;;;;;;;8.57;6.05;;;;;;;;;;6184613;23;20001;-76
2023/05/04 03:05:43;;;;;;;9.75;5.53;;;;;;;;;;6182668;23;20348;-76
2023/05/04 03:08:08;;;;;;;9.80;6.47;;;;;;;;;;6180233;23;20005;-77
2023/05/04 03:10:33;;;;;;;8.27;5.97;;;;;;;;;;6182961;23;20009;-76
2023/05/04 03:13:04;;;;;;;9.63;5.93;;;;;;;;;;6182065;23;20007;-76
2023/05/04 03:15:30;;;;;;;9.68;6.38;;;;;;;;;;6183097;23;20415;-76
2023/05/04 03:17:55;;;;;;;10.13;6.20;;;;;;;;;;6184332;23;20005;-77
2023/05/04 03:20:20;;;;;;;11.23;6.00;;;;;;;;;;6183858;23;20446;-76
2023/05/04 03:22:46;;;;;;;9.82;6.07;;;;;;;;;;6182154;23;20016;-76
2023/05/04 03:25:11;;;;;;;7.25;5.32;;;;;;;;;;6182533;23;20012;-77
2023/05/04 03:27:36;;;;;;;8.63;5.90;;;;;;;;;;6181986;23;20012;-76
2023/05/04 03:30:02;;;;;;;10.23;6.38;;;;;;;;;;6206827;23;20005;-76
2023/05/04 03:32:27;;;;;;;8.70;5.72;;;;;;;;;;6182220;23;20013;-77
2023/05/04 03:34:52;;;;;;;8.02;5.82;;;;;;;;;;6157066;23;20040;-76
2023/05/04 03:37:18;;;;;;;9.60;6.20;;;;;;;;;;6182896;23;20016;-77
2023/05/04 03:39:43;;;;;;;8.77;5.70;;;;;;;;;;6182221;23;20032;-77
2023/05/04 03:42:08;;;;;;;10.75;6.45;;;;;;;;;;6181172;23;20009;-76
2023/05/04 03:44:34;;;;;;;9.07;6.00;;;;;;;;;;6181602;23;20004;-77
2023/05/04 03:46:59;;;;;;;8.55;5.75;;;;;;;;;;6180785;23;20080;-76
2023/05/04 03:49:25;;;;;;;9.07;5.82;;;;;;;;;;6181886;23;20092;-76
2023/05/04 03:51:50;;;;;;;8.30;5.47;;;;;;;;;;6181300;23;20379;-76
2023/05/04 03:54:15;;;;;;;9.27;6.00;;;;;;;;;;6181005;23;20032;-76
2023/05/04 03:56:41;;;;;;;8.75;5.75;;;;;;;;;;6184562;23;20036;-76
2023/05/04 03:59:06;;;;;;;10.63;5.82;;;;;;;;;;6183733;23;20005;-76
2023/05/04 04:01:31;;;;;;;9.50;6.22;;;;;;;;;;6185964;23;20005;-76
2023/05/04 04:03:57;;;;;;;10.13;5.85;;;;;;;;;;6185012;23;20063;-77
2023/05/04 04:06:22;;;;;;;10.80;6.00;;;;;;;;;;6184098;23;20001;-76
2023/05/04 04:08:47;;;;;;;11.13;6.57;;;;;;;;;;6179783;23;20019;-77
2023/05/04 04:11:13;;;;;;;8.18;5.85;;;;;;;;;;6183055;23;20390;-76
2023/05/04 04:13:39;;;;;;;9.20;5.80;;;;;;;;;;6182980;23;20001;-77
2023/05/04 04:16:05;;;;;;;9.32;6.30;;;;;;;;;;6183185;23;20447;-76
2023/05/04 04:18:31;;;;;;;10.65;6.47;;;;;;;;;;6184123;23;20458;-76
2023/05/04 04:20:56;;;;;;;8.23;5.63;;;;;;;;;;6183675;23;20080;-78
2023/05/04 04:23:22;;;;;;;8.10;5.50;;;;;;;;;;6185676;23;20001;-77
2023/05/04 04:25:47;;;;;;;11.60;5.93;;;;;;;;;;6184421;23;19997;-76
2023/05/04 04:28:13;;;;;;;9.20;5.80;;;;;;;;;;6183125;23;20001;-76
2023/05/04 04:30:38;;;;;;;9.20;5.88;;;;;;;;;;6183032;23;20036;-77
2023/05/04 04:33:04;;;;;;;9.45;5.82;;;;;;;;;;6185145;23;20005;-76
2023/05/04 04:35:31;;;;;;;9.15;5.80;;;;;;;;;;6185619;23;20005;-76
2023/05/04 04:37:57;;;;;;;8.80;6.05;;;;;;;;;;6183449;23;20012;-77
2023/05/04 04:40:22;;;;;;;7.88;5.97;;;;;;;;;;6184343;23;20005;-76
2023/05/04 04:42:47;;;;;;;11.68;6.13;;;;;;;;;;6185653;23;20036;-76
2023/05/04 04:45:14;;;;;;;8.82;5.90;;;;;;;;;;6183497;23;20067;-76
2023/05/04 04:47:40;;;;;;;9.15;5.72;;;;;;;;;;6185379;23;20005;-76
2023/05/04 04:50:07;;;;;;;10.20;5.47;;;;;;;;;;6184185;23;20009;-76
2023/05/04 04:52:33;;;;;;;10.40;6.43;;;;;;;;;;6184438;23;19997;-76
2023/05/04 04:54:59;;;;;;;8.85;6.18;;;;;;;;;;6184103;23;20012;-76
2023/05/04 04:57:25;;;;;;;9.27;6.10;;;;;;;;;;6183487;23;20008;-76
2023/05/04 04:59:50;;;;;;;10.52;6.13;;;;;;;;;;6183963;23;20045;-77
2023/05/04 05:02:15;;;;;;;9.57;5.63;;;;;;;;;;6185347;23;20028;-76
2023/05/04 05:04:41;;;;;;;12.05;6.15;;;;;;;;;;6183964;23;20005;-76
2023/05/04 05:07:07;;;;;;;9.57;5.68;;;;;;;;;;6182828;23;20032;-76
2023/05/04 05:09:34;;;;;;;10.35;6.03;;;;;;;;;;6184843;23;20001;-76
2023/05/04 05:11:59;;;;;;;9.40;5.97;;;;;;;;;;6184136;23;20009;-76
2023/05/04 05:14:26;;;;;;;10.65;6.50;;;;;;;;;;6184854;23;20079;-76
2023/05/04 05:16:52;;;;;;;9.20;5.40;;;;;;;;;;6183756;23;20443;-76
2023/05/04 05:19:17;;;;;;;10.30;6.40;;;;;;;;;;6183985;23;20446;-76
2023/05/04 05:21:43;;;;;;;10.65;5.82;;;;;;;;;;6182532;23;20008;-76
2023/05/04 05:24:08;;;;;;;9.93;5.53;;;;;;;;;;6181714;23;20015;-76
2023/05/04 05:26:34;;;;;;;10.77;5.65;;;;;;;;;;6181756;23;20007;-77
2023/05/04 05:28:59;;;;;;;9.43;6.00;;;;;;;;;;6179259;23;20332;-77
2023/05/04 05:31:25;;;;;;;10.75;6.57;;;;;;;;;;6177748;23;20033;-77
2023/05/04 05:33:51;;;;;;;8.35;5.43;;;;;;;;;;6180081;23;20009;-76
2023/05/04 05:36:17;;;;;;;8.38;5.20;;;;;;;;;;6181126;23;20038;-76
2023/05/04 05:38:42;;;;;;;7.63;5.25;;;;;;;;;;6179511;23;20005;-77
2023/05/04 05:41:08;;;;;;;9.75;5.65;;;;;;;;;;6183731;23;20001;-76
2023/05/04 05:43:35;;;;;;;8.18;5.93;;;;;;;;;;6182133;23;20068;-76
2023/05/04 05:46:01;;;;;;;9.10;5.90;;;;;;;;;;6179749;23;20023;-77
2023/05/04 05:48:26;;;;;;;9.82;5.15;;;;;;;;;;6182920;23;20041;-77
2023/05/04 05:50:51;;;;;;;10.52;5.68;;;;;;;;;;6180691;23;20008;-77
2023/05/04 05:53:17;;;;;;;11.45;5.70;;;;;;;;;;6182659;23;20062;-77
2023/05/04 05:55:42;;;;;;;9.27;5.50;;;;;;;;;;6182810;23;20040;-76
2023/05/04 05:58:07;;;;;;;9.20;5.43;;;;;;;;;;6184168;23;20055;-76
2023/05/04 06:00:33;;;;;;;9.88;6.20;;;;;;;;;;6181861;23;20012;-76
2023/05/04 06:02:58;;;;;;;11.18;6.78;;;;;;;;;;6184134;23;20004;-76
2023/05/04 06:05:23;;;;;;;8.00;5.55;;;;;;;;;;6181665;23;20025;-76
2023/05/04 06:07:49;;;;;;;10.05;6.30;;;;;;;;;;6180692;23;20383;-76
2023/05/04 06:10:15;;;;;;;10.40;5.65;;;;;;;;;;6179858;23;20407;-77
2023/05/04 06:12:43;;;;;;;10.52;6.25;;;;;;;;;;6182175;23;20011;-76
2023/05/04 06:15:10;;;;;;;11.20;6.40;;;;;;;;;;6180547;23;20024;-76
2023/05/04 06:17:36;;;;;;;9.90;6.32;;;;;;;;;;6180542;23;20434;-76
2023/05/04 06:20:01;;;;;;;10.75;5.72;;;;;;;;;;6182904;23;20494;-76
2023/05/04 06:22:26;;;;;;;11.93;5.93;;;;;;;;;;6182814;23;20008;-77
2023/05/04 06:24:52;;;;;;;9.73;5.63;;;;;;;;;;6156496;23;20011;-78
2023/05/04 06:27:17;;;;;;;9.70;6.03;;;;;;;;;;6184050;23;20047;-78
2023/05/04 06:29:43;;;;;;;11.40;6.22;;;;;;;;;;6185490;23;20011;-78
2023/05/04 06:32:09;;;;;;;9.57;6.13;;;;;;;;;;6184346;23;20063;-79
2023/05/04 06:34:34;;;;;;;8.05;5.60;;;;;;;;;;6184168;23;20012;-78
2023/05/04 06:37:00;;;;;;;8.77;6.10;;;;;;;;;;6186347;23;20008;-78
2023/05/04 06:39:25;;;;;;;11.63;6.40;;;;;;;;;;6186400;23;20044;-78
2023/05/04 06:41:53;;;;;;;9.15;6.05;;;;;;;;;;6185073;23;20016;-78
2023/05/04 06:44:18;;;;;;;9.60;6.30;;;;;;;;;;6186542;23;20005;-78
2023/05/04 06:46:43;;;;;;;8.88;5.55;;;;;;;;;;6185682;23;20012;-78
2023/05/04 06:49:09;;;;;;;9.80;5.30;;;;;;;;;;6184513;23;20012;-78
2023/05/04 06:51:36;;;;;;;10.10;6.05;;;;;;;;;;6183004;23;20009;-78
2023/05/04 06:54:02;;;;;;;12.20;6.38;;;;;;;;;;6182881;23;20427;-78
2023/05/04 06:56:27;;;;;;;8.88;5.53;;;;;;;;;;6186881;23;20056;-78
2023/05/04 06:58:52;;;;;;;9.73;5.88;;;;;;;;;;6184748;23;20506;-79
2023/05/04 07:01:18;;;;;;;9.73;5.80;;;;;;;;;;6184197;23;20004;-78
2023/05/04 07:03:43;;;;;;;9.68;5.78;;;;;;;;;;6184019;23;20001;-78
2023/05/04 07:06:08;;;;;;;8.35;5.20;;;;;;;;;;6159739;23;20087;-78
2023/05/04 07:08:34;;;;;;;13.48;5.72;;;;;;;;;;6185473;23;20001;-78
2023/05/04 07:10:59;;;;;;;8.45;5.43;;;;;;;;;;6182508;23;20012;-78
2023/05/04 07:13:25;;;;;;;7.93;5.15;;;;;;;;;;6185678;23;20001;-78
2023/05/04 07:15:50;;;;;;;9.75;6.10;;;;;;;;;;6185335;23;20490;-79
2023/05/04 07:18:16;;;;;;;9.77;5.20;;;;;;;;;;6184947;23;20374;-79
2023/05/04 07:20:41;;;;;;;10.30;5.30;;;;;;;;;;6185645;23;20474;-79
2023/05/04 07:23:07;;;;;;;8.85;6.18;;;;;;;;;;6209546;23;20520;-78
2023/05/04 07:25:32;;;;;;;8.65;5.30;;;;;;;;;;6182668;23;20340;-78
2023/05/04 07:27:58;;;;;;;10.20;5.45;;;;;;;;;;6184243;23;20005;-79
2023/05/04 07:30:23;;;;;;;7.38;5.28;;;;;;;;;;6180652;23;20009;-78
2023/05/04 07:32:48;;;;;;;9.50;5.60;;;;;;;;;;6184566;23;20089;-78
2023/05/04 07:35:14;;;;;;;9.15;5.25;;;;;;;;;;6184748;23;20063;-79
2023/05/04 07:37:40;;;;;;;8.93;5.45;;;;;;;;;;6182671;23;20424;-78
2023/05/04 07:40:06;;;;;;;13.18;5.60;;;;;;;;;;6184865;23;20438;-79
2023/05/04 07:42:31;;;;;;;10.07;5.20;;;;;;;;;;6187087;23;20001;-79
2023/05/04 07:44:57;;;;;;;8.90;5.22;;;;;;;;;;6185713;23;20001;-78
2023/05/04 07:47:23;;;;;;;8.73;5.30;;;;;;;;;;6186307;23;20363;-79
2023/05/04 07:49:48;;;;;;;9.43;5.22;;;;;;;;;;6185849;23;20047;-78
2023/05/04 07:52:13;;;;;;;6.97;5.20;;;;;;;;;;6185498;23;20005;-78
2023/05/04 07:54:39;;;;;;;6.78;4.78;;;;;;;;;;6187134;23;20017;-79
2023/05/04 07:57:04;;;;;;;7.53;5.25;;;;;;;;;;6186645;23;20015;-79
2023/05/04 07:59:30;;;;;;;7.10;4.68;;;;;;;;;;6186426;23;20339;-78
2023/05/04 08:01:56;;;;;;;8.38;5.28;;;;;;;;;;6188072;23;20007;-79
2023/05/04 08:04:21;;;;;;;7.47;4.82;;;;;;;;;;6186676;23;20025;-77
2023/05/04 08:06:48;;;;;;;7.95;5.50;;;;;;;;;;6186997;23;19997;-79
2023/05/04 08:09:14;;;;;;;11.40;5.28;;;;;;;;;;6185674;23;20007;-79
2023/05/04 08:11:39;;;;;;;7.30;4.80;;;;;;;;;;6185401;23;20044;-79
2023/05/04 08:14:05;;;;;;;9.23;5.28;;;;;;;;;;6185898;23;20455;-78
2023/05/04 08:16:31;;;;;;;10.27;5.15;;;;;;;;;;6186531;23;20436;-78
2023/05/04 08:18:57;;;;;;;9.23;5.28;;;;;;;;;;6186161;23;20008;-79
2023/05/04 08:21:22;;;;;;;8.57;5.35;;;;;;;;;;6186392;23;20001;-78
2023/05/04 08:23:48;;;;;;;8.55;5.72;;;;;;;;;;6188480;23;20001;-76
2023/05/04 08:26:14;;;;;;;8.30;4.88;;;;;;;;;;6183212;23;19997;-77
2023/05/04 08:28:40;;;;;;;8.45;4.65;;;;;;;;;;6183396;23;20079;-76
2023/05/04 08:31:06;;;;;;;7.18;4.60;;;;;;;;;;6183160;23;20013;-76
2023/05/04 08:33:32;;;;;;;8.43;5.13;;;;;;;;;;6182387;23;20367;-76
2023/05/04 08:35:58;;;;;;;8.32;4.88;;;;;;;;;;6181243;23;20092;-77
2023/05/04 08:38:23;;;;;;;8.32;5.05;;;;;;;;;;6184585;23;20059;-76
2023/05/04 08:40:49;;;;;;;8.50;5.10;;;;;;;;;;6184892;23;20308;-77
2023/05/04 08:43:15;;;;;;;7.78;5.07;;;;;;;;;;6183258;23;20099;-76
2023/05/04 08:45:41;;;;;;;7.88;4.82;;;;;;;;;;6182519;23;20001;-76
2023/05/04 08:48:07;;;;;;;8.70;5.35;;;;;;;;;;6181593;23;20063;-77
2023/05/04 08:50:33;;;;;;;10.57;5.10;;;;;;;;;;6180730;23;20059;-76
2023/05/04 08:53:02;;;;;;;7.57;5.38;;;;;;;;;;6180545;23;20012;-76
2023/05/04 08:55:34;;;;;;;9.35;5.13;;;;;;;;;;6183441;23;20052;-76
2023/05/04 08:58:09;;;;;;;9.10;5.50;;;;;;;;;;6183462;23;20012;-76
2023/05/04 09:00:35;;;;;;;10.40;4.88;;;;;;;;;;6206530;23;20005;-77
2023/05/04 09:03:03;;;;;;;8.38;5.25;;;;;;;;;;6183414;23;20009;-76
2023/05/04 09:05:29;;;;;;;6.60;4.82;;;;;;;;;;6183308;23;20450;-76
2023/05/04 09:07:54;;;;;;;11.98;5.00;;;;;;;;;;6182010;23;20009;-75
2023/05/04 09:10:20;;;;;;;10.25;4.97;;;;;;;;;;6182302;23;20001;-76
2023/05/04 09:12:46;;;;;;;12.38;5.35;;;;;;;;;;6184509;23;20055;-76
2023/05/04 09:15:16;;;;;;;7.15;5.35;;;;;;;;;;6184392;23;20428;-76
2023/05/04 09:17:42;;;;;;;8.68;5.20;;;;;;;;;;6184043;23;20581;-76
2023/05/04 09:20:08;;;;;;;8.57;4.78;;;;;;;;;;6181704;23;20043;-76
2023/05/04 09:22:34;;;;;;;9.13;5.32;;;;;;;;;;6182535;23;20015;-77
2023/05/04 09:25:07;;;;;;;9.88;5.57;;;;;;;;;;6182460;23;20012;-76
2023/05/04 09:27:32;;;;;;;7.90;5.13;;;;;;;;;;6177665;23;20052;-76
2023/05/04 09:29:57;;;;;;;7.53;4.63;;;;;;;;;;6183510;23;20449;-76
2023/05/04 09:32:23;;;;;;;10.55;4.65;;;;;;;;;;6181848;23;20016;-76
2023/05/04 09:34:50;;;;;;;8.75;4.65;;;;;;;;;;6181573;23;20016;-76
2023/05/04 09:37:15;;;;;;;7.55;4.75;;;;;;;;;;6184086;23;20428;-77
2023/05/04 09:39:51;;;;;;;8.00;5.13;;;;;;;;;;6183342;23;20012;-76
2023/05/04 09:42:17;;;;;;;11.05;5.18;;;;;;;;;;6183242;23;20012;-76
2023/05/04 09:44:43;;;;;;;7.20;4.95;;;;;;;;;;6183170;23;20724;-76
2023/05/04 09:47:09;;;;;;;6.75;4.93;;;;;;;;;;6177106;23;20016;-77
2023/05/04 09:49:36;;;;;;;9.45;4.90;;;;;;;;;;6181524;23;20005;-77
2023/05/04 09:52:03;;;;;;;10.10;5.13;;;;;;;;;;6180826;23;20423;-76
2023/05/04 09:54:33;;;;;;;8.63;5.05;;;;;;;;;;6183371;23;20084;-76
2023/05/04 09:57:10;;;;;;;8.02;4.95;;;;;;;;;;6183465;23;20032;-76
2023/05/04 09:59:36;;;;;;;7.50;4.85;;;;;;;;;;6183173;23;20032;-76
2023/05/04 10:02:03;;;;;;;7.13;5.05;;;;;;;;;;6182127;23;20012;-76
2023/05/04 10:04:31;;;;;;;8.00;5.07;;;;;;;;;;6181548;23;20009;-77
2023/05/04 10:06:56;;;;;;;8.10;5.18;;;;;;;;;;6181875;23;20424;-78
2023/05/04 10:09:22;;;;;;;8.25;5.30;;;;;;;;;;6182611;23;20063;-76
2023/05/04 10:11:48;;;;;;;10.35;5.13;;;;;;;;;;6182056;23;20016;-76
2023/05/04 10:14:14;;;;;;;8.13;4.97;;;;;;;;;;6201147;23;20339;-76
2023/05/04 10:16:55;;;;;;;9.27;5.50;;;;;;;;;;6181819;23;20001;-77
2023/05/04 10:19:43;;;;;;;12.55;5.90;;;;;;;;;;6181388;23;20008;-77
2023/05/04 10:22:22;;;;;;;11.02;5.88;;;;;;;;;;6205526;23;20016;-76
2023/05/04 10:24:59;;;;;;;10.52;6.38;;;;;;;;;;6175412;23;20019;-78
2023/05/04 10:27:52;;;;;;;9.23;5.60;;;;;;;;;;6192802;23;20005;-78
2023/05/04 10:30:19;;;;;;;20.85;6.45;;;;;;;;;;6191883;23;20095;-77
2023/05/04 10:32:44;;;;;;;9.65;5.47;;;;;;;;;;6216608;23;20009;-77
2023/05/04 10:35:10;;;;;;;9.25;5.47;;;;;;;;;;6192717;23;20031;-77
2023/05/04 10:37:39;;;;;;;11.48;6.90;;;;;;;;;;6186751;23;20577;-77
2023/05/04 10:40:06;;;;;;;10.00;6.13;;;;;;;;;;6192523;23;20005;-78
2023/05/04 10:42:42;;;;;;;10.63;6.18;;;;;;;;;;6189117;23;20007;-78
2023/05/04 10:45:08;;;;;;;12.27;6.28;;;;;;;;;;6187974;23;20065;-77
2023/05/04 10:47:35;;;;;;;9.45;5.80;;;;;;;;;;6188919;23;20009;-77
2023/05/04 10:50:05;;;;;;;10.63;6.20;;;;;;;;;;6191698;23;20340;-77
2023/05/04 10:52:31;;;;;;;8.20;5.93;;;;;;;;;;6191145;23;20091;-78
2023/05/04 10:55:02;;;;;;;8.63;5.78;;;;;;;;;;6189483;23;20029;-77
2023/05/04 10:57:28;;;;;;;9.98;5.93;;;;;;;;;;6191439;23;20004;-77
2023/05/04 10:59:58;;;;;;;9.07;5.95;;;;;;;;;;6190847;23;20020;-77
2023/05/04 11:02:25;;;;;;;11.32;6.57;;;;;;;;;;6191476;23;20012;-78
2023/05/04 11:05:06;;;;;;;9.48;5.88;;;;;;;;;;6187972;23;20055;-78
2023/05/04 11:07:36;;;;;;;7.97;5.70;;;;;;;;;;6195340;23;20139;-78
2023/05/04 11:10:03;;;;;;;7.68;5.70;;;;;;;;;;6200413;23;20012;-77
2023/05/04 11:12:30;;;;;;;10.30;6.13;;;;;;;;;;6204275;23;20009;-77
2023/05/04 11:15:07;;;;;;;11.00;6.30;;;;;;;;;;6203750;23;20017;-78
2023/05/04 11:17:32;;;;;;;10.80;5.85;;;;;;;;;;6200547;23;20177;-78
2023/05/04 11:19:59;;;;;;;9.70;6.22;;;;;;;;;;6205716;23;20064;-78
2023/05/04 11:22:25;;;;;;;9.85;5.80;;;;;;;;;;6206412;23;20036;-78
2023/05/04 11:24:51;;;;;;;10.25;5.60;;;;;;;;;;6195666;23;20005;-78
2023/05/04 11:27:29;;;;;;;10.57;5.63;;;;;;;;;;6201183;23;20012;-77
2023/05/04 11:30:03;;;;;;;8.55;5.18;;;;;;;;;;6202553;23;20012;-78
2023/05/04 11:32:35;;;;;;;8.73;5.45;;;;;;;;;;6206127;23;20044;-77
2023/05/04 11:35:01;;;;;;;7.57;4.68;;;;;;;;;;6206460;23;20005;-78
2023/05/04 11:37:28;;;;;;;8.50;5.15;;;;;;;;;;6204420;23;20005;-78
2023/05/04 11:39:53;;;;;;;12.25;6.22;;;;;;;;;;6208215;23;20049;-78
2023/05/04 11:42:19;;;;;;;9.23;5.65;;;;;;;;;;6206599;23;19993;-77
2023/05/04 11:44:45;;;;;;;9.73;5.75;;;;;;;;;;6206165;23;20005;-77
2023/05/04 11:47:12;;;;;;;7.90;5.40;;;;;;;;;;6202619;23;20052;-78
2023/05/04 11:49:38;;;;;;;8.25;5.55;;;;;;;;;;6198779;23;20011;-78
2023/05/04 11:52:05;;;;;;;10.90;6.32;;;;;;;;;;6205301;23;20005;-78
2023/05/04 11:54:31;;;;;;;9.65;6.05;;;;;;;;;;6206117;23;20085;-77
2023/05/04 11:56:57;;;;;;;12.98;5.10;;;;;;;;;;6204018;23;20384;-78
2023/05/04 11:59:23;;;;;;;7.90;5.18;;;;;;;;;;6201913;23;20005;-78
2023/05/04 12:01:48;;;;;;;8.73;5.70;;;;;;;;;;6202381;23;20166;-78
2023/05/04 12:04:13;;;;;;;10.00;5.82;;;;;;;;;;6204082;23;20063;-78
2023/05/04 12:06:39;;;;;;;8.20;5.63;;;;;;;;;;6206813;23;20400;-78
2023/05/04 12:09:05;;;;;;;10.63;5.28;;;;;;;;;;6207622;23;20005;-78
2023/05/04 12:11:31;;;;;;;9.80;5.72;;;;;;;;;;6204721;23;20092;-78
2023/05/04 12:14:15;;;;;;;9.27;5.35;;;;;;;;;;6205287;23;20012;-77
2023/05/04 12:16:52;;;;;;;9.82;5.90;;;;;;;;;;6206874;23;20697;-78
2023/05/04 12:19:17;;;;;;;11.43;5.65;;;;;;;;;;6207549;23;20004;-77
2023/05/04 12:21:51;;;;;;;9.63;5.70;;;;;;;;;;6203356;23;20040;-77
2023/05/04 12:24:16;;;;;;;9.57;6.00;;;;;;;;;;6205042;23;20001;-78
2023/05/04 12:26:41;;;;;;;7.75;5.53;;;;;;;;;;6206715;23;20004;-78
2023/05/04 12:29:07;;;;;;;9.07;5.82;;;;;;;;;;6204149;23;20088;-78
2023/05/04 12:31:32;;;;;;;10.45;5.93;;;;;;;;;;6205429;23;20004;-75
2023/05/04 12:33:58;;;;;;;11.80;5.65;;;;;;;;;;6203527;23;20004;-75
2023/05/04 12:36:23;;;;;;;8.13;5.22;;;;;;;;;;6206425;23;20021;-75
2023/05/04 12:38:48;;;;;;;9.63;5.45;;;;;;;;;;6204472;23;20084;-72
2023/05/04 12:41:14;;;;;;;7.93;5.18;;;;;;;;;;6204809;23;20057;-75
2023/05/04 12:43:39;;;;;;;7.00;5.20;;;;;;;;;;6206422;23;20013;-75
2023/05/04 12:46:06;;;;;;;8.75;5.00;;;;;;;;;;6227984;23;20715;-75
2023/05/04 12:48:31;;;;;;;11.48;5.95;;;;;;;;;;6205533;23;20019;-75
2023/05/04 12:50:57;;;;;;;8.68;5.00;;;;;;;;;;6204292;23;20001;-75
2023/05/04 12:53:26;;;;;;;9.52;5.40;;;;;;;;;;6204984;23;20008;-74
2023/05/04 12:55:52;;;;;;;8.13;4.32;;;;;;;;;;6203476;23;20020;-75
2023/05/04 12:58:17;;;;;;;8.13;4.28;;;;;;;;;;6204536;23;20005;-75
2023/05/04 13:00:43;;;;;;;7.57;4.20;;;;;;;;;;6204270;23;20061;-74
2023/05/04 13:03:10;;;;;;;9.85;4.40;;;;;;;;;;6205086;23;20005;-75
2023/05/04 13:05:36;;;;;;;9.45;5.00;;;;;;;;;;6203699;23;20015;-75
2023/05/04 13:08:01;;;;;;;6.45;4.40;;;;;;;;;;6203436;23;20338;-75
2023/05/04 13:10:26;;;;;;;8.27;5.00;;;;;;;;;;6200386;23;20495;-75
2023/05/04 13:12:52;;;;;;;10.98;4.50;;;;;;;;;;6201839;23;20005;-75
2023/05/04 13:15:17;;;;;;;8.43;4.80;;;;;;;;;;6200809;23;20065;-74
2023/05/04 13:17:43;;;;;;;8.90;5.95;;;;;;;;;;6201373;23;20036;-74
2023/05/04 13:20:12;;;;;;;8.55;5.47;;;;;;;;;;6201445;23;20100;-75
2023/05/04 13:22:38;;;;;;;9.23;4.57;;;;;;;;;;6200855;23;20096;-78
2023/05/04 13:25:04;;;;;;;8.55;4.82;;;;;;;;;;6204542;23;20001;-77
2023/05/04 13:27:29;;;;;;;9.40;5.72;;;;;;;;;;6205622;23;20001;-77
2023/05/04 13:29:57;;;;;;;7.82;5.03;;;;;;;;;;6201263;23;20001;-75
2023/05/04 13:32:24;;;;;;;6.47;4.32;;;;;;;;;;6198765;23;20005;-75
2023/05/04 13:34:50;;;;;;;8.95;5.50;;;;;;;;;;6203427;23;20004;-75
2023/05/04 13:37:17;;;;;;;9.45;5.13;;;;;;;;;;6205416;23;20012;-77
2023/05/04 13:39:43;;;;;;;7.72;5.18;;;;;;;;;;6203904;23;20005;-75
2023/05/04 13:42:10;;;;;;;9.77;5.43;;;;;;;;;;6205014;23;20080;-75
2023/05/04 13:44:35;;;;;;;8.07;5.00;;;;;;;;;;6206328;23;20060;-75
2023/05/04 13:47:02;;;;;;;10.02;5.45;;;;;;;;;;6178464;23;20016;-77
2023/05/04 13:49:28;;;;;;;9.23;5.63;;;;;;;;;;6206861;23;20005;-77
2023/05/04 13:51:55;;;;;;;10.65;5.43;;;;;;;;;;6204444;23;20004;-77
2023/05/04 13:54:21;;;;;;;7.75;5.32;;;;;;;;;;6206911;23;20057;-77
2023/05/04 13:56:47;;;;;;;9.65;5.55;;;;;;;;;;6206996;23;20064;-77
2023/05/04 13:59:12;;;;;;;8.48;5.47;;;;;;;;;;6206517;23;20025;-77
2023/05/04 14:01:38;;;;;;;8.52;5.03;;;;;;;;;;6206792;23;20024;-77
2023/05/04 14:04:03;;;;;;;8.27;4.90;;;;;;;;;;6207407;23;20012;-77
2023/05/04 14:06:29;;;;;;;6.32;4.47;;;;;;;;;;6204789;23;20009;-77
2023/05/04 14:08:55;;;;;;;7.15;4.50;;;;;;;;;;6205828;23;20067;-77
2023/05/04 14:11:21;;;;;;;10.05;5.32;;;;;;;;;;6207920;23;20016;-75
2023/05/04 14:13:47;;;;;;;7.28;4.72;;;;;;;;;;6207003;23;20029;-75
2023/05/04 14:16:12;;;;;;;8.23;4.75;;;;;;;;;;6204985;23;19989;-75
2023/05/04 14:18:38;;;;;;;7.20;4.78;;;;;;;;;;6203600;23;20001;-75
2023/05/04 14:21:03;;;;;;;6.93;4.53;;;;;;;;;;6206043;23;20035;-75
2023/05/04 14:23:28;;;;;;;10.77;4.80;;;;;;;;;;6202410;23;20437;-75
2023/05/04 14:25:55;;;;;;;6.68;4.22;;;;;;;;;;6203331;23;20008;-75
2023/05/04 14:28:22;;;;;;;7.85;4.80;;;;;;;;;;6205695;23;20029;-75
2023/05/04 14:30:48;;;;;;;7.07;4.40;;;;;;;;;;6205709;23;20009;-76
2023/05/04 14:33:13;;;;;;;10.77;4.50;;;;;;;;;;6204128;23;20071;-75